createdAt,value
2022-11-24T00:00:15.430Z,29.13
2022-11-24T00:02:42.497Z,28.05
2022-11-24T00:05:09.499Z,27.15
2022-11-24T00:07:36.371Z,27.88
2022-11-24T00:10:03.711Z,26.27
2022-11-24T00:12:30.549Z,27.60
2022-11-24T00:14:57.409Z,26.92
2022-11-24T00:17:24.362Z,24.02
2022-11-24T00:19:51.192Z,24.92
2022-11-24T00:22:18.054Z,26.75
2022-11-24T00:24:44.918Z,26.65
2022-11-24T00:27:11.764Z,26.25
2022-11-24T00:29:38.631Z,26.88
2022-11-24T00:32:06.625Z,28.25
2022-11-24T00:34:33.913Z,26.98
2022-11-24T00:37:00.909Z,25.70
2022-11-24T00:39:27.817Z,24.33
2022-11-24T00:41:54.857Z,26.83
2022-11-24T00:44:21.709Z,27.73
2022-11-24T00:46:48.749Z,27.52
2022-11-24T00:49:15.776Z,26.25
2022-11-24T00:51:42.694Z,28.40
2022-11-24T00:54:09.580Z,26.33
2022-11-24T00:56:36.410Z,29.80
2022-11-24T00:59:03.662Z,26.65
2022-11-24T01:01:33.674Z,26.85
2022-11-24T01:04:03.721Z,27.27
2022-11-24T01:06:30.790Z,26.70
2022-11-24T01:08:58.039Z,26.80
2022-11-24T01:11:52.641Z,26.83
2022-11-24T01:14:19.931Z,26.13
2022-11-24T01:16:46.826Z,29.90
2022-11-24T01:19:13.759Z,26.65
2022-11-24T01:21:40.668Z,27.60
2022-11-24T01:24:07.554Z,27.38
2022-11-24T01:26:34.404Z,26.23
2022-11-24T01:29:01.394Z,28.65
2022-11-24T01:31:28.465Z,27.30
2022-11-24T01:33:55.476Z,27.75
2022-11-24T01:36:22.436Z,27.50
2022-11-24T01:38:49.302Z,25.88
2022-11-24T01:41:23.680Z,25.52
2022-11-24T01:43:52.208Z,24.50
2022-11-24T01:46:29.334Z,25.20
2022-11-24T01:49:06.262Z,24.70
2022-11-24T01:51:34.698Z,23.70
2022-11-24T01:54:10.074Z,23.90
2022-11-24T01:56:38.095Z,25.83
2022-11-24T01:59:05.352Z,25.02
2022-11-24T02:01:32.381Z,27.30
2022-11-24T02:03:59.948Z,24.33
2022-11-24T02:06:28.187Z,23.75
2022-11-24T02:08:59.229Z,26.02
2022-11-24T02:11:28.327Z,23.77
2022-11-24T02:13:55.215Z,24.05
2022-11-24T02:16:22.181Z,25.73
2022-11-24T02:18:49.139Z,26.55
2022-11-24T02:21:16.233Z,22.00
2022-11-24T02:23:57.369Z,23.88
2022-11-24T02:26:41.890Z,24.23
2022-11-24T02:29:10.105Z,26.43
2022-11-24T02:31:37.156Z,25.17
2022-11-24T02:34:04.008Z,24.63
2022-11-24T02:36:31.030Z,24.15
2022-11-24T02:38:57.970Z,26.02
2022-11-24T02:41:25.383Z,25.75
2022-11-24T02:43:55.264Z,27.88
2022-11-24T02:46:22.365Z,25.63
2022-11-24T02:48:49.362Z,24.95
2022-11-24T02:51:16.262Z,25.40
2022-11-24T02:53:43.126Z,25.10
2022-11-24T02:56:10.038Z,25.25
2022-11-24T02:58:37.074Z,22.15
2022-11-24T03:01:04.059Z,23.42
2022-11-24T03:03:31.038Z,24.55
2022-11-24T03:05:57.919Z,24.70
2022-11-24T03:08:24.764Z,25.75
2022-11-24T03:10:51.672Z,24.52
2022-11-24T03:13:18.570Z,23.27
2022-11-24T03:15:45.474Z,23.77
2022-11-24T03:18:12.410Z,23.02
2022-11-24T03:20:39.339Z,23.13
2022-11-24T03:23:06.209Z,22.23
2022-11-24T03:25:33.075Z,20.73
2022-11-24T03:27:59.967Z,20.08
2022-11-24T03:30:26.844Z,21.48
2022-11-24T03:32:53.916Z,22.85
2022-11-24T03:35:21.385Z,20.92
2022-11-24T03:37:48.294Z,21.60
2022-11-24T03:40:15.211Z,20.45
2022-11-24T03:42:42.077Z,21.00
2022-11-24T03:45:37.952Z,20.30
2022-11-24T03:47:56.119Z,19.88
2022-11-24T03:50:22.957Z,21.70
2022-11-24T03:52:49.824Z,19.90
2022-11-24T03:55:16.752Z,20.00
2022-11-24T03:57:43.624Z,19.38
2022-11-24T04:00:11.194Z,18.58
2022-11-24T04:02:38.425Z,20.00
2022-11-24T04:05:06.031Z,20.52
2022-11-24T04:07:33.035Z,19.63
2022-11-24T04:09:59.990Z,20.40
2022-11-24T04:12:53.252Z,19.85
2022-11-24T04:15:20.340Z,18.38
2022-11-24T04:17:47.959Z,18.23
2022-11-24T04:20:15.560Z,20.05
2022-11-24T04:22:42.979Z,20.35
2022-11-24T04:25:10.209Z,19.83
2022-11-24T04:27:37.344Z,19.17
2022-11-24T04:30:05.539Z,18.60
2022-11-24T04:32:32.445Z,19.90
2022-11-24T04:34:59.301Z,19.70
2022-11-24T04:37:26.191Z,19.55
2022-11-24T04:39:55.013Z,18.77
2022-11-24T04:42:22.064Z,19.88
2022-11-24T04:44:49.106Z,18.90
2022-11-24T04:47:22.065Z,18.88
2022-11-24T04:49:51.966Z,19.65
2022-11-24T04:52:22.731Z,20.27
2022-11-24T04:54:49.778Z,22.27
2022-11-24T04:57:23.784Z,25.58
2022-11-24T04:59:51.366Z,28.95
2022-11-24T05:02:18.583Z,23.65
2022-11-24T05:04:46.159Z,23.48
2022-11-24T05:07:18.356Z,21.95
2022-11-24T05:10:05.832Z,20.23
2022-11-24T05:12:32.796Z,31.48
2022-11-24T05:15:00.889Z,22.20
2022-11-24T05:17:35.881Z,23.35
2022-11-24T05:20:03.017Z,24.95
2022-11-24T05:22:30.330Z,18.90
2022-11-24T05:24:57.388Z,19.23
2022-11-24T05:27:24.261Z,19.23
2022-11-24T05:29:51.141Z,20.80
2022-11-24T05:32:18.115Z,18.08
2022-11-24T05:34:45.034Z,18.48
2022-11-24T05:37:12.054Z,18.05
2022-11-24T05:39:39.131Z,18.25
2022-11-24T05:42:25.870Z,20.15
2022-11-24T05:44:53.383Z,16.45
2022-11-24T05:47:20.804Z,16.67
2022-11-24T05:49:47.857Z,19.13
2022-11-24T05:52:15.033Z,17.58
2022-11-24T05:54:42.145Z,18.00
2022-11-24T05:57:09.088Z,19.77
2022-11-24T05:59:36.154Z,16.63
2022-11-24T06:02:03.544Z,16.00
2022-11-24T06:04:30.686Z,18.42
2022-11-24T06:06:57.990Z,15.43
2022-11-24T06:09:25.017Z,15.60
2022-11-24T06:11:51.873Z,16.83
2022-11-24T06:14:18.848Z,16.40
2022-11-24T06:16:45.799Z,16.42
2022-11-24T06:19:12.795Z,15.45
2022-11-24T06:21:39.917Z,15.95
2022-11-24T06:24:07.382Z,14.45
2022-11-24T06:26:34.286Z,16.25
2022-11-24T06:29:01.453Z,15.80
2022-11-24T06:31:28.500Z,17.67
2022-11-24T06:33:55.630Z,14.07
2022-11-24T06:36:22.674Z,16.58
2022-11-24T06:38:49.635Z,15.23
2022-11-24T06:41:16.663Z,15.40
2022-11-24T06:43:43.810Z,14.20
2022-11-24T06:46:11.150Z,17.00
2022-11-24T06:48:38.495Z,16.52
2022-11-24T06:51:09.133Z,16.25
2022-11-24T06:53:39.642Z,13.90
2022-11-24T06:56:13.837Z,16.85
2022-11-24T06:58:48.144Z,15.63
2022-11-24T07:01:25.491Z,15.10
2022-11-24T07:03:53.290Z,17.00
2022-11-24T07:06:20.632Z,13.73
2022-11-24T07:08:47.687Z,15.50
2022-11-24T07:11:16.511Z,16.35
2022-11-24T07:13:43.660Z,13.75
2022-11-24T07:16:16.786Z,16.92
2022-11-24T07:18:44.531Z,15.48
2022-11-24T07:21:11.754Z,14.90
2022-11-24T07:23:38.924Z,16.65
2022-11-24T07:26:07.107Z,14.43
2022-11-24T07:28:34.978Z,14.75
2022-11-24T07:31:08.919Z,16.30
2022-11-24T07:33:36.051Z,13.63
2022-11-24T07:36:03.462Z,14.90
2022-11-24T07:38:31.112Z,14.68
2022-11-24T07:41:08.514Z,14.65
2022-11-24T07:43:36.284Z,15.65
2022-11-24T07:46:04.491Z,15.82
2022-11-24T07:48:32.170Z,16.75
2022-11-24T07:51:00.507Z,15.43
2022-11-24T07:53:27.929Z,14.95
2022-11-24T07:56:00.538Z,17.15
2022-11-24T07:58:32.357Z,15.85
2022-11-24T08:01:00.638Z,17.40
2022-11-24T08:03:28.017Z,16.55
2022-11-24T08:06:22.086Z,16.25
2022-11-24T08:08:43.361Z,17.17
2022-11-24T08:11:12.375Z,17.10
2022-11-24T08:13:39.671Z,51.33
2022-11-24T08:16:15.379Z,30.92
2022-11-24T08:18:42.448Z,29.00
2022-11-24T08:21:12.911Z,27.17
2022-11-24T08:23:39.892Z,27.00
2022-11-24T08:26:08.967Z,27.33
2022-11-24T08:28:36.590Z,36.15
2022-11-24T08:31:08.562Z,32.10
2022-11-24T08:33:35.625Z,29.90
2022-11-24T08:36:06.878Z,28.23
2022-11-24T08:38:33.993Z,26.50
2022-11-24T08:41:05.412Z,29.77
2022-11-24T08:43:32.617Z,36.60
2022-11-24T08:46:01.346Z,43.20
2022-11-24T08:48:28.714Z,35.20
2022-11-24T08:50:56.088Z,44.85
2022-11-24T08:53:23.505Z,38.25
2022-11-24T08:55:50.463Z,37.28
2022-11-24T08:58:17.505Z,34.60
2022-11-24T09:00:44.518Z,34.40
2022-11-24T09:03:11.972Z,36.55
2022-11-24T09:05:54.186Z,32.53
2022-11-24T09:08:21.200Z,31.80
2022-11-24T09:10:48.120Z,30.58
2022-11-24T09:13:15.032Z,29.83
2022-11-24T09:15:42.016Z,28.42
2022-11-24T09:18:08.983Z,30.65
2022-11-24T09:20:48.065Z,30.13
2022-11-24T09:23:15.088Z,32.58
2022-11-24T09:25:42.045Z,29.60
2022-11-24T09:28:08.970Z,27.90
2022-11-24T09:30:35.986Z,28.50
2022-11-24T09:33:03.278Z,31.27
2022-11-24T09:35:30.165Z,29.63
2022-11-24T09:37:57.119Z,31.10
2022-11-24T09:40:24.126Z,27.50
2022-11-24T09:43:03.464Z,29.85
2022-11-24T09:46:07.040Z,27.58
2022-11-24T09:48:36.668Z,27.50
2022-11-24T09:51:03.969Z,29.92
2022-11-24T09:53:44.715Z,29.65
2022-11-24T09:56:28.591Z,27.02
2022-11-24T09:59:21.946Z,27.87
2022-11-24T10:01:49.469Z,26.13
2022-11-24T10:04:26.555Z,28.15
2022-11-24T10:06:56.847Z,27.10
2022-11-24T10:09:25.218Z,28.98
2022-11-24T10:12:16.870Z,39.22
2022-11-24T10:14:52.748Z,38.88
2022-11-24T10:17:55.120Z,38.55
2022-11-24T10:20:31.238Z,37.33
2022-11-24T10:23:16.467Z,32.90
2022-11-24T10:25:59.319Z,33.80
2022-11-24T10:28:37.849Z,39.03
2022-11-24T10:31:23.934Z,38.33
2022-11-24T10:33:51.106Z,32.38
2022-11-24T10:36:37.237Z,35.15
2022-11-24T10:39:10.457Z,33.58
2022-11-24T10:41:42.982Z,33.35
2022-11-24T10:44:14.128Z,35.67
2022-11-24T10:46:41.285Z,32.42
2022-11-24T10:49:08.347Z,29.95
2022-11-24T10:52:12.940Z,30.48
2022-11-24T10:55:12.453Z,33.22
2022-11-24T10:57:40.204Z,30.02
2022-11-24T11:00:30.332Z,27.85
2022-11-24T11:03:24.431Z,27.67
2022-11-24T11:05:56.654Z,29.17
2022-11-24T11:08:25.709Z,60.92
2022-11-24T11:11:16.526Z,61.05
2022-11-24T11:14:32.025Z,57.03
2022-11-24T11:16:59.011Z,52.70
2022-11-24T11:19:58.496Z,50.17
2022-11-24T11:22:26.584Z,45.15
2022-11-24T11:25:11.737Z,43.78
2022-11-24T11:27:39.706Z,45.83
2022-11-24T11:36:09.832Z,40.08
2022-11-24T11:38:38.057Z,56.72
2022-11-24T11:41:05.372Z,50.85
2022-11-24T11:43:34.881Z,51.85
2022-11-24T11:46:19.791Z,49.67
2022-11-24T11:48:47.031Z,42.53
2022-11-24T11:54:53.409Z,38.05
2022-11-24T11:57:55.685Z,44.03
2022-11-24T12:00:22.789Z,36.65
2022-11-24T12:03:17.263Z,40.55
2022-11-24T12:06:07.730Z,37.45
2022-11-24T12:11:58.045Z,33.50
2022-11-24T12:14:59.124Z,33.97
2022-11-24T12:18:16.985Z,31.70
2022-11-24T12:21:12.546Z,33.85
2022-11-24T12:23:48.966Z,33.47
2022-11-24T12:26:34.786Z,31.33
2022-11-24T12:29:42.337Z,33.10
2022-11-24T12:32:47.176Z,31.60
2022-11-24T12:35:44.128Z,27.67
2022-11-24T12:38:10.969Z,31.38
2022-11-24T12:41:39.942Z,31.98
2022-11-24T12:43:59.480Z,33.15
2022-11-24T12:46:32.360Z,30.58
2022-11-24T12:49:04.979Z,29.45
2022-11-24T12:51:34.166Z,28.42
2022-11-24T12:54:02.819Z,45.20
2022-11-24T12:56:36.048Z,56.20
2022-11-24T12:59:06.063Z,1637.47
2022-11-24T13:01:36.092Z,1205.35
2022-11-24T13:04:11.902Z,975.78
2022-11-24T13:06:47.463Z,713.60
2022-11-24T13:09:16.321Z,680.92
2022-11-24T13:11:44.337Z,650.53
2022-11-24T13:14:30.033Z,535.08
2022-11-24T13:19:47.709Z,484.48
2022-11-24T13:22:35.659Z,369.80
2022-11-24T13:25:17.844Z,375.73
2022-11-24T13:27:55.514Z,359.70
2022-11-24T13:30:34.592Z,215.98
2022-11-24T13:33:02.612Z,275.40
2022-11-24T13:35:29.871Z,235.35
2022-11-24T13:37:56.898Z,224.60
2022-11-24T13:40:23.863Z,234.68
2022-11-24T13:43:01.612Z,183.77
2022-11-24T13:45:41.114Z,198.55
2022-11-24T13:48:20.657Z,179.82
2022-11-24T13:50:50.991Z,175.10
2022-11-24T13:53:40.850Z,145.68
2022-11-24T13:56:13.658Z,135.68
2022-11-24T13:58:50.498Z,130.27
2022-11-24T14:01:20.646Z,143.02
2022-11-24T14:07:08.237Z,107.80
2022-11-24T14:09:46.154Z,87.93
2022-11-24T14:12:20.848Z,99.20
2022-11-24T14:14:49.158Z,94.20
2022-11-24T14:17:22.765Z,86.05
2022-11-24T14:19:51.741Z,80.05
2022-11-24T14:22:26.868Z,72.60
2022-11-24T14:25:00.924Z,79.28
2022-11-24T14:27:29.471Z,69.35
2022-11-24T14:30:03.141Z,65.15
2022-11-24T14:32:30.929Z,61.60
2022-11-24T14:34:58.029Z,65.05
2022-11-24T14:37:25.071Z,69.43
2022-11-24T14:39:52.135Z,61.80
2022-11-24T14:42:19.015Z,61.38
2022-11-24T14:45:03.884Z,61.88
2022-11-24T14:47:37.969Z,52.63
2022-11-24T14:50:15.827Z,58.33
2022-11-24T14:52:54.148Z,51.85
2022-11-24T14:55:29.185Z,46.97
2022-11-24T14:57:56.526Z,42.85
2022-11-24T15:00:27.176Z,55.20
2022-11-24T15:03:01.044Z,47.88
2022-11-24T15:05:52.734Z,42.25
2022-11-24T15:08:19.739Z,43.50
2022-11-24T15:10:46.605Z,47.85
2022-11-24T15:13:18.254Z,48.53
2022-11-24T15:16:06.920Z,41.38
2022-11-24T15:18:44.939Z,44.05
2022-11-24T15:21:18.636Z,38.35
2022-11-24T15:24:05.976Z,36.58
2022-11-24T15:26:40.220Z,36.72
2022-11-24T15:29:10.400Z,33.60
2022-11-24T15:31:38.572Z,33.22
2022-11-24T15:34:05.697Z,36.30
2022-11-24T15:36:33.300Z,37.35
2022-11-24T15:39:00.274Z,32.92
2022-11-24T15:41:31.477Z,33.10
2022-11-24T15:44:01.380Z,35.78
2022-11-24T15:46:29.269Z,33.85
2022-11-24T15:48:56.475Z,28.85
2022-11-24T15:51:25.119Z,31.90
2022-11-24T15:53:57.096Z,32.38
2022-11-24T15:56:36.889Z,28.73
2022-11-24T15:59:04.023Z,32.47
2022-11-24T16:01:32.355Z,30.08
2022-11-24T16:04:00.266Z,26.45
2022-11-24T16:06:27.241Z,29.60
2022-11-24T16:08:54.299Z,27.92
2022-11-24T16:11:21.772Z,27.23
2022-11-24T16:13:52.963Z,28.63
2022-11-24T16:16:21.723Z,28.65
2022-11-24T16:18:48.731Z,31.33
2022-11-24T16:21:15.642Z,30.63
2022-11-24T16:23:42.666Z,28.70
2022-11-24T16:26:09.590Z,29.65
2022-11-24T16:28:36.447Z,26.20
2022-11-24T16:31:03.599Z,28.35
2022-11-24T16:33:32.226Z,28.15
2022-11-24T16:35:59.219Z,26.00
2022-11-24T16:38:26.163Z,27.02
2022-11-24T16:40:53.994Z,26.95
2022-11-24T16:43:20.957Z,21.50
2022-11-24T16:46:16.139Z,23.33
2022-11-24T16:51:10.950Z,24.83
2022-11-24T16:53:38.188Z,25.02
2022-11-24T16:56:05.266Z,24.77
2022-11-24T16:58:32.183Z,25.85
2022-11-24T17:01:10.480Z,24.45
2022-11-24T17:03:37.637Z,23.90
2022-11-24T17:06:11.913Z,26.98
2022-11-24T17:08:39.679Z,27.25
2022-11-24T17:11:17.004Z,25.33
2022-11-24T17:13:44.017Z,26.33
2022-11-24T17:16:12.344Z,26.55
2022-11-24T17:18:39.430Z,25.02
2022-11-24T17:21:09.784Z,22.83
2022-11-24T17:23:37.147Z,25.48
2022-11-24T17:26:08.974Z,26.77
2022-11-24T17:28:36.075Z,24.05
2022-11-24T17:31:15.707Z,24.88
2022-11-24T17:33:42.658Z,24.15
2022-11-24T17:36:09.569Z,23.30
2022-11-24T17:38:36.937Z,25.88
2022-11-24T17:41:03.972Z,26.38
2022-11-24T17:43:30.993Z,24.98
2022-11-24T17:46:00.924Z,26.67
2022-11-24T17:48:28.297Z,25.08
2022-11-24T17:51:12.989Z,27.55
2022-11-24T17:53:40.701Z,26.00
2022-11-24T17:56:07.862Z,25.88
2022-11-24T17:58:39.701Z,27.27
2022-11-24T18:01:09.671Z,26.65
2022-11-24T18:03:36.568Z,23.13
2022-11-24T18:06:07.545Z,25.02
2022-11-24T18:08:35.224Z,27.35
2022-11-24T18:11:24.695Z,27.80
2022-11-24T18:13:59.732Z,25.48
2022-11-24T18:16:30.055Z,26.58
2022-11-24T18:19:07.843Z,28.50
2022-11-24T18:21:35.901Z,27.17
2022-11-24T18:24:02.727Z,27.67
2022-11-24T18:26:29.604Z,27.75
2022-11-24T18:28:56.504Z,26.55
2022-11-24T18:31:23.475Z,24.67
2022-11-24T18:33:50.311Z,27.60
2022-11-24T18:36:18.837Z,25.10
2022-11-24T18:38:46.023Z,25.77
2022-11-24T18:41:13.755Z,24.05
2022-11-24T18:43:40.653Z,23.48
2022-11-24T18:46:14.891Z,27.95
2022-11-24T18:48:42.469Z,26.60
2022-11-24T18:51:14.314Z,25.05
2022-11-24T18:53:45.814Z,29.23
2022-11-24T18:56:15.819Z,26.77
2022-11-24T18:58:43.073Z,27.23
2022-11-24T19:01:12.741Z,26.25
2022-11-24T19:03:47.818Z,27.75
2022-11-24T19:06:17.331Z,25.50
2022-11-24T19:08:45.137Z,25.98
2022-11-24T19:11:19.316Z,24.77
2022-11-24T19:13:47.620Z,24.98
2022-11-24T19:16:14.782Z,26.52
2022-11-24T19:18:41.729Z,25.42
2022-11-24T19:21:08.670Z,26.58
2022-11-24T19:23:35.559Z,25.60
2022-11-24T19:26:03.151Z,25.38
2022-11-24T19:28:30.007Z,25.73
2022-11-24T19:31:01.356Z,23.92
2022-11-24T19:33:28.356Z,25.63
2022-11-24T19:36:02.372Z,25.75
2022-11-24T19:38:30.526Z,24.83
2022-11-24T19:41:04.527Z,23.02
2022-11-24T19:43:31.663Z,28.35
2022-11-24T19:46:08.408Z,27.23
2022-11-24T19:48:38.336Z,24.95
2022-11-24T19:51:06.807Z,25.33
2022-11-24T19:53:34.572Z,25.20
2022-11-24T19:56:07.640Z,26.92
2022-11-24T19:58:34.676Z,25.15
2022-11-24T20:01:14.476Z,27.20
2022-11-24T20:03:42.128Z,28.02
2022-11-24T20:06:10.369Z,27.65
2022-11-24T20:08:37.677Z,25.40
2022-11-24T20:11:04.809Z,25.50
2022-11-24T20:13:32.173Z,25.52
2022-11-24T20:16:05.754Z,24.60
2022-11-24T20:18:35.220Z,25.10
2022-11-24T20:21:09.203Z,26.38
2022-11-24T20:23:36.143Z,27.67
2022-11-24T20:26:06.964Z,23.30
2022-11-24T20:28:33.985Z,27.00
2022-11-24T20:31:05.273Z,26.48
2022-11-24T20:33:32.174Z,26.08
2022-11-24T20:36:13.296Z,27.38
2022-11-24T20:38:40.499Z,24.52
2022-11-24T20:41:33.691Z,28.90
2022-11-24T20:44:03.817Z,27.67
2022-11-24T20:46:32.141Z,27.02
2022-11-24T20:48:59.920Z,30.25
2022-11-24T20:51:31.515Z,30.27
2022-11-24T20:54:00.535Z,27.02
2022-11-24T20:56:31.815Z,28.00
2022-11-24T20:58:58.823Z,27.83
2022-11-24T21:01:28.221Z,26.50
2022-11-24T21:03:56.478Z,26.25
2022-11-24T21:06:23.485Z,28.88
2022-11-24T21:08:51.017Z,28.83
2022-11-24T21:11:18.152Z,28.08
2022-11-24T21:13:45.377Z,31.30
2022-11-24T21:16:15.936Z,29.58
2022-11-24T21:18:43.547Z,28.02
2022-11-24T21:21:10.505Z,26.48
2022-11-24T21:23:37.403Z,27.40
2022-11-24T21:26:07.461Z,29.38
2022-11-24T21:28:37.216Z,26.70
2022-11-24T21:31:09.627Z,30.38
2022-11-24T21:33:49.936Z,28.33
2022-11-24T21:36:18.654Z,28.75
2022-11-24T21:38:50.412Z,29.30
2022-11-24T21:41:17.331Z,30.45
2022-11-24T21:43:44.308Z,27.38
2022-11-24T21:46:11.480Z,29.33
2022-11-24T21:48:38.649Z,30.98
2022-11-24T21:51:07.272Z,30.02
2022-11-24T21:53:35.628Z,27.20
2022-11-24T21:56:07.364Z,29.73
2022-11-24T21:58:34.308Z,29.55
2022-11-24T22:01:05.797Z,31.52
2022-11-24T22:03:32.710Z,27.58
2022-11-24T22:05:59.979Z,27.15
2022-11-24T22:08:27.888Z,28.65
2022-11-24T22:10:55.445Z,27.42
2022-11-24T22:13:22.466Z,28.80
2022-11-24T22:15:58.187Z,29.55
2022-11-24T22:18:25.056Z,30.25
2022-11-24T22:20:55.852Z,28.17
2022-11-24T22:23:22.712Z,28.92
2022-11-24T22:25:49.535Z,28.90
2022-11-24T22:28:16.385Z,32.50
2022-11-24T22:30:43.239Z,27.15
2022-11-24T22:33:10.204Z,28.05
2022-11-24T22:35:37.107Z,27.38
2022-11-24T22:38:03.969Z,27.88
2022-11-24T22:40:30.846Z,28.85
2022-11-24T22:42:58.247Z,29.17
2022-11-24T22:45:25.223Z,29.10
2022-11-24T22:47:55.154Z,27.33
2022-11-24T22:50:22.013Z,28.73
2022-11-24T22:52:50.189Z,29.15
2022-11-24T22:55:17.071Z,28.88
2022-11-24T22:57:48.078Z,29.80
2022-11-24T23:00:16.356Z,29.35
2022-11-24T23:02:43.278Z,27.08
2022-11-24T23:05:10.223Z,30.48
2022-11-24T23:07:37.124Z,30.85
2022-11-24T23:10:04.123Z,30.27
2022-11-24T23:12:30.942Z,30.27
2022-11-24T23:14:57.915Z,29.65
2022-11-24T23:17:24.741Z,29.95
2022-11-24T23:19:51.579Z,30.80
2022-11-24T23:22:18.450Z,30.98
2022-11-24T23:24:45.319Z,31.05
2022-11-24T23:27:12.162Z,28.58
2022-11-24T23:29:39.939Z,28.52
2022-11-24T23:32:06.797Z,29.60
2022-11-24T23:34:33.832Z,30.02
2022-11-24T23:37:00.913Z,29.75
2022-11-24T23:39:27.724Z,29.25
2022-11-24T23:41:54.550Z,30.65
2022-11-24T23:44:22.153Z,28.80
2022-11-24T23:46:49.040Z,28.92
2022-11-24T23:49:15.856Z,30.70
2022-11-24T23:51:42.822Z,33.22
2022-11-24T23:56:54.220Z,28.90
2022-11-24T23:59:22.658Z,30.55
